USCCUSSS

Guest
Details From USCC - Balandino
To USSS - Koltsovo
Flight Number -
Tags Generated
Created
Modified
Stats Distance 89 nm / 165 km
Max Altitude 0 ft / 0 m
Waypoints 2
Social Downloads 1
Likes 0
Share VATSIM

Download

Looking for another format? Having issues loading an existing format? Contact us
Advertisement - Login to hide

Notes

Generated

Route

USCC USSS

ID Type Via Altitude Latitude Longitude Leg Dist Tot Dist Heading (true) Name
O USCC APT - 0 ft / 0 m 55.30921˚ 61.47889˚ - 0 nm - -
O USSS APT - 0 ft / 0 m 56.74481˚ 60.78140˚ 89 nm 89 nm 345° / 345° -

Altitude Profile

Advertisement - Login to hide

USCC

Details ICAO USCC (CEK)
Name BALANDINO
Region Russia
Timezone Asia/Yekaterinburg (UTC+5.0)
Stats Elevation 769 ft / 234 m (AMSL)
Location 55.305843° 61.503320°
Runways 1
Magnetic Variation 13.828° E

METAR

USCC 230000Z 32003MPS CAVOK 06/M03 Q1026 R27/000060 NOSIG RMK QFE749

Decode

TAF

TAF USCC 222300Z 2300/2324 33006MPS 9999 SCT030 TEMPO 2300/2303 3100 FU SCT015

Decode

Departure Runways

ID Width Length Bearing (true) Bearing (mag) Surface Threshold Offset Overrun Length
09 197 ft / 60 m 10,443 ft / 3,183 m 103.59° 89.76° Concrete 0 ft / 0 m 230 ft / 70 m
27 197 ft / 60 m 10,443 ft / 3,183 m 283.63° 269.80° Concrete 0 ft / 0 m 230 ft / 70 m

USSS

Details ICAO USSS (SVX)
Name KOLTSOVO
Region Russia
Timezone Asia/Yekaterinburg (UTC+5.0)
Stats Elevation 764 ft / 233 m (AMSL)
Location 56.743108° 60.802727°
Runways 2
Magnetic Variation 14.900° E

METAR

USSS 230000Z 00000MPS CAVOK 02/M04 Q1027 R26R/010060 NOSIG RMK QFE749/0999

Decode

TAF

TAF USSS 222259Z 2300/2324 32007MPS 9999 SCT030 BECMG 2315/2316 27003MPS

Decode

Destination Runways

ID Width Length Bearing (true) Bearing (mag) Surface Threshold Offset Overrun Length
08L 148 ft / 45 m 8,172 ft / 2,491 m 90.13° 75.23° Asphalt 0 ft / 0 m 230 ft / 70 m
08R 174 ft / 53 m 9,861 ft / 3,006 m 94.09° 79.19° Concrete 246 ft / 75 m 165 ft / 50 m
26L 174 ft / 53 m 9,861 ft / 3,006 m 274.14° 259.24° Concrete 1,066 ft / 325 m 165 ft / 50 m
26R 148 ft / 45 m 8,172 ft / 2,491 m 270.17° 255.27° Asphalt 0 ft / 0 m 220 ft / 67 m

Approach Navaids

Runway Type Ident Frequency Range Bearing (true) Bearing (mag) Slope Elevation
08R Localiser IEL 109.90 MHz 18 nm / 33 km 94.03° 79.14° - 764 ft / 233 m (AMSL)
08R Glidescope IEL 109.90 MHz 10 nm / 19 km 94.11° 79.22° 2.70° 764 ft / 233 m (AMSL)
26L Localiser IED 109.50 MHz 18 nm / 33 km 272.26° 257.36° - 764 ft / 233 m (AMSL)
26L Glidescope IED 109.50 MHz 10 nm / 19 km 274.12° 259.22° 2.80° 764 ft / 233 m (AMSL)
26R Localiser IKU 110.50 MHz 18 nm / 33 km 270.48° 255.58° - 764 ft / 233 m (AMSL)
26R Glidescope IKU 110.50 MHz 10 nm / 19 km 270.15° 255.25° 3.00° 764 ft / 233 m (AMSL)

Popular Alternatives